createdAt,value
2023-04-26T00:02:37.406Z,6.10
2023-04-26T00:05:39.473Z,6.11
2023-04-26T00:08:41.263Z,6.13
2023-04-26T00:11:42.917Z,6.14
2023-04-26T00:14:44.695Z,6.15
2023-04-26T00:17:46.529Z,6.18
2023-04-26T00:20:48.137Z,6.20
2023-04-26T00:23:50.091Z,6.23
2023-04-26T00:26:54.752Z,6.27
2023-04-26T00:29:56.498Z,6.27
2023-04-26T00:32:58.160Z,6.25
2023-04-26T00:35:59.862Z,6.23
2023-04-26T00:39:01.562Z,6.22
2023-04-26T00:42:03.466Z,6.22
2023-04-26T00:45:06.471Z,6.23
2023-04-26T00:48:08.266Z,6.24
2023-04-26T00:51:10.096Z,6.23
2023-04-26T00:54:12.904Z,6.21
2023-04-26T00:57:14.618Z,6.18
2023-04-26T01:00:16.350Z,6.14
2023-04-26T01:03:18.247Z,6.13
2023-04-26T01:06:19.989Z,6.13
2023-04-26T01:09:21.818Z,6.12
2023-04-26T01:12:24.180Z,6.13
2023-04-26T01:15:26.531Z,6.13
2023-04-26T01:18:28.584Z,6.13
2023-04-26T01:21:30.324Z,6.12
2023-04-26T01:24:32.909Z,6.09
2023-04-26T01:27:54.473Z,6.06
2023-04-26T01:30:56.169Z,6.04
2023-04-26T01:33:57.783Z,6.01
2023-04-26T01:36:59.384Z,6.00
2023-04-26T01:40:01.148Z,5.98
2023-04-26T01:43:02.793Z,5.97
2023-04-26T01:46:04.382Z,5.94
2023-04-26T01:49:06.001Z,5.92
2023-04-26T01:52:07.709Z,5.87
2023-04-26T01:55:09.855Z,5.80
2023-04-26T01:58:11.482Z,5.74
2023-04-26T02:01:13.070Z,5.67
2023-04-26T02:04:14.697Z,5.60
2023-04-26T02:07:16.629Z,5.54
2023-04-26T02:10:18.598Z,5.47
2023-04-26T02:13:20.501Z,5.39
2023-04-26T02:16:22.267Z,5.32
2023-04-26T02:19:24.099Z,5.27
2023-04-26T02:22:25.779Z,5.23
2023-04-26T02:25:27.299Z,5.20
2023-04-26T02:28:29.071Z,5.14
2023-04-26T02:31:30.790Z,5.07
2023-04-26T02:34:32.460Z,4.97
2023-04-26T02:37:34.054Z,4.88
2023-04-26T02:40:35.948Z,4.79
2023-04-26T02:43:38.000Z,4.78
2023-04-26T02:46:39.540Z,4.73
2023-04-26T02:49:41.218Z,4.64
2023-04-26T02:52:42.740Z,4.56
2023-04-26T02:55:44.674Z,4.47
2023-04-26T02:58:46.280Z,4.40
2023-04-26T03:01:47.890Z,4.35
2023-04-26T03:04:49.713Z,4.26
2023-04-26T03:07:52.025Z,4.18
2023-04-26T03:10:53.652Z,4.08
2023-04-26T03:13:55.177Z,4.06
2023-04-26T03:16:57.070Z,4.04
2023-04-26T03:19:59.997Z,4.00
2023-04-26T03:23:03.583Z,3.99
2023-04-26T03:26:05.183Z,3.98
2023-04-26T03:29:06.835Z,4.00
2023-04-26T03:32:08.613Z,3.97
2023-04-26T03:35:10.266Z,3.94
2023-04-26T03:38:12.052Z,3.91
2023-04-26T03:41:13.691Z,3.85
2023-04-26T03:44:15.721Z,3.80
2023-04-26T03:47:17.486Z,3.75
2023-04-26T03:50:19.428Z,3.68
2023-04-26T03:53:21.241Z,3.61
2023-04-26T03:56:23.043Z,3.56
2023-04-26T03:59:24.799Z,3.54
2023-04-26T04:02:26.609Z,3.53
2023-04-26T04:05:28.783Z,3.50
2023-04-26T04:08:30.453Z,3.47
2023-04-26T04:11:32.131Z,3.40
2023-04-26T04:14:33.785Z,3.36
2023-04-26T04:17:37.640Z,3.39
2023-04-26T04:20:41.708Z,3.50
2023-04-26T04:23:43.799Z,3.58
2023-04-26T04:26:45.488Z,3.68
2023-04-26T04:29:46.970Z,3.75
2023-04-26T04:32:48.564Z,3.80
2023-04-26T04:35:50.082Z,3.88
2023-04-26T04:38:51.974Z,3.95
2023-04-26T04:41:53.895Z,3.98
2023-04-26T04:44:55.558Z,4.07
2023-04-26T04:48:00.338Z,4.14
2023-04-26T04:51:01.961Z,4.20
2023-04-26T04:54:13.110Z,4.27
2023-04-26T04:57:14.716Z,4.36
2023-04-26T05:00:16.782Z,4.44
2023-04-26T05:03:18.705Z,4.51
2023-04-26T05:06:20.566Z,4.60
2023-04-26T05:09:22.069Z,4.72
2023-04-26T05:12:23.782Z,5.11
2023-04-26T05:15:26.545Z,5.43
2023-04-26T05:18:28.634Z,5.68
2023-04-26T05:21:30.397Z,5.84
2023-04-26T05:24:32.302Z,6.08
2023-04-26T05:27:34.027Z,6.25
2023-04-26T05:30:35.779Z,6.41
2023-04-26T05:33:37.646Z,6.54
2023-04-26T05:36:39.365Z,6.73
2023-04-26T05:39:41.019Z,6.78
2023-04-26T05:42:42.762Z,6.81
2023-04-26T05:45:54.534Z,6.98
2023-04-26T05:48:56.351Z,7.12
2023-04-26T05:52:01.294Z,7.35
2023-04-26T05:55:03.141Z,7.44
2023-04-26T05:58:05.278Z,7.54
2023-04-26T06:01:06.928Z,7.74
2023-04-26T06:04:09.092Z,7.78
2023-04-26T06:07:11.323Z,7.54
2023-04-26T06:10:12.992Z,7.35
2023-04-26T06:13:15.537Z,7.33
2023-04-26T06:16:17.192Z,7.49
2023-04-26T06:19:19.194Z,7.46
2023-04-26T06:22:20.852Z,7.51
2023-04-26T06:25:22.821Z,7.44
2023-04-26T06:28:25.836Z,7.33
2023-04-26T06:31:27.549Z,7.05
2023-04-26T06:34:29.287Z,7.15
2023-04-26T06:37:31.518Z,7.59
2023-04-26T06:40:33.286Z,8.01
2023-04-26T06:43:34.912Z,8.32
2023-04-26T06:46:36.581Z,8.69
2023-04-26T06:49:38.370Z,9.09
2023-04-26T06:52:40.058Z,9.08
2023-04-26T06:55:41.818Z,9.22
2023-04-26T06:59:01.348Z,9.00
2023-04-26T07:02:03.450Z,9.35
2023-04-26T07:05:05.734Z,9.60
2023-04-26T07:08:07.841Z,10.06
2023-04-26T07:11:10.636Z,10.39
2023-04-26T07:14:12.493Z,10.55
2023-04-26T07:17:14.102Z,10.54
2023-04-26T07:20:15.801Z,10.59
2023-04-26T07:23:17.410Z,10.66
2023-04-26T07:26:19.139Z,10.81
2023-04-26T07:29:20.753Z,10.85
2023-04-26T07:32:22.452Z,10.82
2023-04-26T07:35:24.401Z,11.32
2023-04-26T07:38:26.236Z,11.35
2023-04-26T07:41:27.959Z,11.11
2023-04-26T07:44:29.563Z,11.08
2023-04-26T07:47:31.357Z,10.93
2023-04-26T07:50:33.140Z,11.04
2023-04-26T07:53:35.208Z,11.35
2023-04-26T07:56:36.938Z,10.98
2023-04-26T07:59:38.618Z,10.53
2023-04-26T08:02:45.214Z,10.35
2023-04-26T08:05:47.940Z,10.56
2023-04-26T08:08:50.473Z,11.11
2023-04-26T08:11:52.444Z,10.88
2023-04-26T08:14:54.109Z,10.46
2023-04-26T08:17:55.758Z,10.45
2023-04-26T08:20:57.432Z,10.51
2023-04-26T08:23:59.173Z,10.02
2023-04-26T08:27:00.943Z,9.79
2023-04-26T08:30:02.670Z,10.03
2023-04-26T08:33:04.448Z,11.00
2023-04-26T08:36:06.504Z,11.79
2023-04-26T08:39:08.694Z,11.55
2023-04-26T08:42:16.019Z,11.05
2023-04-26T08:45:17.651Z,10.57
2023-04-26T08:48:19.968Z,10.16
2023-04-26T08:51:22.358Z,9.94
2023-04-26T08:54:24.871Z,9.78
2023-04-26T08:57:27.436Z,9.66
2023-04-26T09:00:29.611Z,10.40
2023-04-26T09:03:31.827Z,10.54
2023-04-26T09:06:33.945Z,11.19
2023-04-26T09:09:37.694Z,11.90
2023-04-26T09:12:39.591Z,12.22
2023-04-26T09:15:41.579Z,11.76
2023-04-26T09:18:49.963Z,11.10
2023-04-26T09:21:51.778Z,11.75
2023-04-26T09:24:53.427Z,12.34
2023-04-26T09:27:55.217Z,11.65
2023-04-26T09:30:56.848Z,10.87
2023-04-26T09:33:59.790Z,10.41
2023-04-26T09:37:01.398Z,10.37
2023-04-26T09:40:03.114Z,10.49
2023-04-26T09:43:12.352Z,10.15
2023-04-26T09:46:22.603Z,9.94
2023-04-26T09:49:26.763Z,10.67
2023-04-26T09:52:28.386Z,12.05
2023-04-26T09:55:35.339Z,12.97
2023-04-26T09:58:40.556Z,12.57
2023-04-26T10:01:42.174Z,11.38
2023-04-26T10:04:49.821Z,10.35
2023-04-26T10:07:51.700Z,9.72
2023-04-26T10:10:54.320Z,9.44
2023-04-26T10:13:56.107Z,9.74
2023-04-26T10:16:58.462Z,10.99
2023-04-26T10:20:00.611Z,10.54
2023-04-26T10:23:03.782Z,9.74
2023-04-26T10:26:05.775Z,9.12
2023-04-26T10:29:07.680Z,8.73
2023-04-26T10:32:10.102Z,8.82
2023-04-26T10:35:13.723Z,8.77
2023-04-26T10:38:15.664Z,9.48
2023-04-26T10:41:35.607Z,10.63
2023-04-26T10:44:38.594Z,11.04
2023-04-26T10:47:40.378Z,12.00
2023-04-26T10:51:00.572Z,12.96
2023-04-26T10:54:02.443Z,13.83
2023-04-26T10:57:04.211Z,13.12
2023-04-26T11:00:08.535Z,12.11
2023-04-26T11:03:11.040Z,11.27
2023-04-26T11:06:13.012Z,10.71
2023-04-26T11:09:36.703Z,10.32
2023-04-26T11:12:42.150Z,9.77
2023-04-26T11:15:43.805Z,9.36
2023-04-26T11:18:47.209Z,9.13
2023-04-26T11:21:49.102Z,9.13
2023-04-26T11:24:50.826Z,9.38
2023-04-26T11:27:57.418Z,9.68
2023-04-26T11:30:59.573Z,9.63
2023-04-26T11:34:04.408Z,9.51
2023-04-26T11:37:08.030Z,10.32
2023-04-26T11:40:11.182Z,11.35
2023-04-26T11:43:13.722Z,12.14
2023-04-26T11:46:15.504Z,12.68
2023-04-26T11:49:17.425Z,13.35
2023-04-26T11:52:19.091Z,13.03
2023-04-26T11:55:24.236Z,12.60
2023-04-26T11:58:25.965Z,11.95
2023-04-26T12:01:29.436Z,11.29
2023-04-26T12:04:31.447Z,10.90
2023-04-26T12:07:37.202Z,10.39
2023-04-26T12:10:38.952Z,9.88
2023-04-26T12:13:40.562Z,9.39
2023-04-26T12:16:46.755Z,8.61
2023-04-26T12:19:49.842Z,8.28
2023-04-26T12:23:08.447Z,9.20
2023-04-26T12:26:10.385Z,10.75
2023-04-26T12:29:12.040Z,11.83
2023-04-26T12:32:13.865Z,11.71
2023-04-26T12:35:15.556Z,11.45
2023-04-26T12:38:18.080Z,12.07
2023-04-26T12:41:19.738Z,12.92
2023-04-26T12:44:22.655Z,12.41
2023-04-26T12:47:24.598Z,11.14
2023-04-26T12:50:26.487Z,10.64
2023-04-26T12:53:28.138Z,10.56
2023-04-26T12:56:29.987Z,11.01
2023-04-26T12:59:31.786Z,11.87
2023-04-26T13:02:33.949Z,12.57
2023-04-26T13:05:35.775Z,12.65
2023-04-26T13:08:37.384Z,11.87
2023-04-26T13:11:39.314Z,11.41
2023-04-26T13:14:41.167Z,10.81
2023-04-26T13:17:42.956Z,10.29
2023-04-26T13:20:45.200Z,9.97
2023-04-26T13:23:46.842Z,9.82
2023-04-26T13:26:48.497Z,10.14
2023-04-26T13:29:50.465Z,10.72
2023-04-26T13:32:52.167Z,11.81
2023-04-26T13:35:54.109Z,12.44
2023-04-26T13:38:55.880Z,12.78
2023-04-26T13:41:59.137Z,12.21
2023-04-26T13:45:00.825Z,11.63
2023-04-26T13:48:02.595Z,11.65
2023-04-26T13:51:07.032Z,12.39
2023-04-26T13:54:09.030Z,13.72
2023-04-26T13:57:10.646Z,14.01
2023-04-26T14:00:13.378Z,13.07
2023-04-26T14:03:15.325Z,12.29
2023-04-26T14:06:17.205Z,11.71
2023-04-26T14:09:19.172Z,11.50
2023-04-26T14:12:20.770Z,11.18
2023-04-26T14:15:22.461Z,10.80
2023-04-26T14:18:24.201Z,10.46
2023-04-26T14:21:25.901Z,10.04
2023-04-26T14:24:27.523Z,9.78
2023-04-26T14:27:29.299Z,9.78
2023-04-26T14:30:30.967Z,10.08
2023-04-26T14:33:32.763Z,11.17
2023-04-26T14:36:34.803Z,12.26
2023-04-26T14:39:36.676Z,11.91
2023-04-26T14:42:38.268Z,11.24
2023-04-26T14:45:44.852Z,11.08
2023-04-26T14:48:46.924Z,11.33
2023-04-26T14:51:48.760Z,12.57
2023-04-26T14:54:51.499Z,13.89
2023-04-26T14:57:53.364Z,13.67
2023-04-26T15:00:55.027Z,13.03
2023-04-26T15:03:59.312Z,14.06
2023-04-26T15:07:01.980Z,13.52
2023-04-26T15:10:04.803Z,12.13
2023-04-26T15:13:06.495Z,11.22
2023-04-26T15:16:08.450Z,10.62
2023-04-26T15:19:10.109Z,10.24
2023-04-26T15:22:11.998Z,10.15
2023-04-26T15:25:13.810Z,10.16
2023-04-26T15:28:16.583Z,10.24
2023-04-26T15:31:20.841Z,11.11
2023-04-26T15:34:22.559Z,11.84
2023-04-26T15:37:24.287Z,11.95
2023-04-26T15:40:25.954Z,11.65
2023-04-26T15:43:27.538Z,11.24
2023-04-26T15:46:29.227Z,10.78
2023-04-26T15:49:31.035Z,10.90
2023-04-26T15:52:38.576Z,11.08
2023-04-26T15:55:40.961Z,11.08
2023-04-26T15:58:43.664Z,10.95
2023-04-26T16:01:45.335Z,10.55
2023-04-26T16:04:47.159Z,10.14
2023-04-26T16:07:48.988Z,9.71
2023-04-26T16:10:50.757Z,9.38
2023-04-26T16:13:52.513Z,9.15
2023-04-26T16:16:54.275Z,8.97
2023-04-26T16:19:56.100Z,8.79
2023-04-26T16:22:57.792Z,8.66
2023-04-26T16:25:59.616Z,8.74
2023-04-26T16:29:01.487Z,8.78
2023-04-26T16:32:03.340Z,8.86
2023-04-26T16:35:05.366Z,8.78
2023-04-26T16:38:07.118Z,8.45
2023-04-26T16:41:08.752Z,8.18
2023-04-26T16:44:10.472Z,8.06
2023-04-26T16:47:12.148Z,8.01
2023-04-26T16:50:14.188Z,7.89
2023-04-26T16:53:15.794Z,7.67
2023-04-26T16:56:17.437Z,7.46
2023-04-26T16:59:19.525Z,7.21
2023-04-26T17:02:21.227Z,6.96
2023-04-26T17:05:23.440Z,6.76
2023-04-26T17:08:25.115Z,6.56
2023-04-26T17:11:26.931Z,6.38
2023-04-26T17:14:28.548Z,6.22
2023-04-26T17:17:30.083Z,6.10
2023-04-26T17:20:33.142Z,6.01
2023-04-26T17:23:34.983Z,6.02
2023-04-26T17:26:36.651Z,6.17
2023-04-26T17:29:38.250Z,6.05
2023-04-26T17:32:39.764Z,5.84
2023-04-26T17:35:41.493Z,5.68
2023-04-26T17:38:43.699Z,5.59
2023-04-26T17:41:45.380Z,5.52
2023-04-26T17:44:46.885Z,5.43
2023-04-26T17:47:48.592Z,5.38
2023-04-26T17:50:50.436Z,5.37
2023-04-26T17:53:52.228Z,5.36
2023-04-26T17:56:53.742Z,5.37
2023-04-26T17:59:55.373Z,5.36
2023-04-26T18:02:57.141Z,5.33
2023-04-26T18:05:58.982Z,5.31
2023-04-26T18:09:00.526Z,5.29
2023-04-26T18:12:02.168Z,5.27
2023-04-26T18:15:03.891Z,5.21
2023-04-26T18:18:05.916Z,5.21
2023-04-26T18:21:07.648Z,5.22
2023-04-26T18:24:09.747Z,5.11
2023-04-26T18:27:11.410Z,5.05
2023-04-26T18:30:13.308Z,5.03
2023-04-26T18:33:15.014Z,4.99
2023-04-26T18:36:16.967Z,4.98
2023-04-26T18:39:18.658Z,4.93
2023-04-26T18:42:20.332Z,4.87
2023-04-26T18:45:21.856Z,4.81
2023-04-26T18:48:23.475Z,4.69
2023-04-26T18:51:24.975Z,4.58
2023-04-26T18:54:26.658Z,4.50
2023-04-26T18:57:28.260Z,4.42
2023-04-26T19:00:29.948Z,4.38
2023-04-26T19:03:31.684Z,4.37
2023-04-26T19:06:33.410Z,4.33
2023-04-26T19:09:46.623Z,4.30
2023-04-26T19:12:55.240Z,4.27
2023-04-26T19:15:56.863Z,4.24
2023-04-26T19:18:58.631Z,4.21
2023-04-26T19:22:00.317Z,4.18
2023-04-26T19:25:01.906Z,4.13
2023-04-26T19:28:03.612Z,4.05
2023-04-26T19:31:05.600Z,3.96
2023-04-26T19:34:07.295Z,3.93
2023-04-26T19:37:08.841Z,3.88
2023-04-26T19:40:10.742Z,3.81
2023-04-26T19:43:12.480Z,3.70
2023-04-26T19:46:14.355Z,3.59
2023-04-26T19:49:16.093Z,3.52
2023-04-26T19:52:17.746Z,3.45
2023-04-26T19:55:19.445Z,3.41
2023-04-26T19:58:21.068Z,3.38
2023-04-26T20:01:22.749Z,3.24
2023-04-26T20:04:24.736Z,3.01
2023-04-26T20:07:26.811Z,2.85
2023-04-26T20:10:32.546Z,2.82
2023-04-26T20:13:34.505Z,2.83
2023-04-26T20:16:36.300Z,2.83
2023-04-26T20:19:37.852Z,2.77
2023-04-26T20:22:40.442Z,2.63
2023-04-26T20:25:42.108Z,2.47
2023-04-26T20:28:43.616Z,2.37
2023-04-26T20:31:45.449Z,2.29
2023-04-26T20:34:47.182Z,2.33
2023-04-26T20:37:48.872Z,2.42
2023-04-26T20:40:50.430Z,2.48
2023-04-26T20:43:52.283Z,2.49
2023-04-26T20:46:53.830Z,2.47
2023-04-26T20:49:55.706Z,2.44
2023-04-26T20:52:57.484Z,2.38
2023-04-26T20:55:59.134Z,2.35
2023-04-26T20:59:00.777Z,2.35
2023-04-26T21:02:02.670Z,2.28
2023-04-26T21:05:05.287Z,2.22
2023-04-26T21:08:07.031Z,2.23
2023-04-26T21:11:09.103Z,2.28
2023-04-26T21:14:10.978Z,2.28
2023-04-26T21:17:12.739Z,2.26
2023-04-26T21:20:14.451Z,2.26
2023-04-26T21:23:16.257Z,2.27
2023-04-26T21:26:18.149Z,2.28
2023-04-26T21:29:19.990Z,2.26
2023-04-26T21:32:21.588Z,2.14
2023-04-26T21:35:23.373Z,2.11
2023-04-26T21:38:25.371Z,2.15
2023-04-26T21:41:27.266Z,2.16
2023-04-26T21:44:29.078Z,2.12
2023-04-26T21:47:30.684Z,1.99
2023-04-26T21:50:32.408Z,1.82
2023-04-26T21:53:33.990Z,1.70
2023-04-26T21:56:35.768Z,1.69
2023-04-26T21:59:37.291Z,1.74
2023-04-26T22:02:39.219Z,1.77
2023-04-26T22:05:41.228Z,1.79
2023-04-26T22:08:43.003Z,1.76
2023-04-26T22:11:44.704Z,1.76
2023-04-26T22:14:46.306Z,1.79
2023-04-26T22:17:48.091Z,1.81
2023-04-26T22:20:49.899Z,1.79
2023-04-26T22:23:51.658Z,1.77
2023-04-26T22:26:53.234Z,1.74
2023-04-26T22:29:54.976Z,1.72
2023-04-26T22:32:56.832Z,1.68
2023-04-26T22:35:58.542Z,1.66
2023-04-26T22:39:00.136Z,1.62
2023-04-26T22:42:01.837Z,1.57
2023-04-26T22:45:03.477Z,1.49
2023-04-26T22:48:05.310Z,1.43
2023-04-26T22:51:07.093Z,1.48
2023-04-26T22:54:08.656Z,1.48
2023-04-26T22:57:10.422Z,1.45
2023-04-26T23:00:12.956Z,1.46
2023-04-26T23:03:14.760Z,1.45
2023-04-26T23:06:16.796Z,1.51
2023-04-26T23:09:18.397Z,1.54
2023-04-26T23:12:20.221Z,1.61
2023-04-26T23:15:22.250Z,1.64
2023-04-26T23:18:24.184Z,1.66
2023-04-26T23:21:25.920Z,1.68
2023-04-26T23:24:27.556Z,1.67
2023-04-26T23:27:29.297Z,1.66
2023-04-26T23:30:31.182Z,1.67
2023-04-26T23:33:33.100Z,1.66
2023-04-26T23:36:34.687Z,1.66
2023-04-26T23:39:36.549Z,1.65
2023-04-26T23:42:38.315Z,1.64
2023-04-26T23:45:40.591Z,1.62
2023-04-26T23:48:42.715Z,1.60
2023-04-26T23:51:44.289Z,1.56
2023-04-26T23:54:46.066Z,1.48
2023-04-26T23:57:47.689Z,1.43
